| time (UTC) | temp C | wind direction | speed KPH | gust KPH | rain 1hr cm | rain 24hr cm | rain mn cm | humidity % | barometer mb |
| 20260510071125 | 10 | 163 | 12.9 | 20.9 | 0.03 | 2.77 | 0.51 | 86 | 1008.0 |
| 20260510065625 | 11 | 119 | 11.3 | 22.5 | 0.03 | 2.77 | 0.51 | 86 | 1007.5 |
| 20260510064124 | 11 | 139 | 9.7 | 25.7 | 0.03 | 2.77 | 0.51 | 86 | 1007.7 |
| 20260510062624 | 11 | 180 | 6.4 | 16.1 | 0.00 | 2.77 | 0.51 | 86 | 1007.7 |
| 20260510061821 | 10 | 143 | 9.7 | 14.5 | 0.00 | 2.77 | 0.51 | 86 | 1007.4 |
| 20260510055622 | 10 | 131 | 9.7 | 16.1 | 0.00 | 2.77 | 0.51 | 86 | 1007.3 |
| 20260510054122 | 10 | 139 | 8.0 | 16.1 | 0.00 | 2.77 | 0.51 | 86 | 1007.4 |
| 20260510054023 | 10 | 145 | 9.7 | 16.1 | 0.03 | 2.77 | 0.51 | 86 | 1007.4 |
| 20260510051123 | 10 | 139 | 11.3 | 19.3 | 0.03 | 2.77 | 0.51 | 86 | 1007.3 |
| 20260510045622 | 10 | 137 | 11.3 | 20.9 | 0.05 | 2.77 | 0.51 | 86 | 1007.2 |
| 20260510044122 | 10 | 128 | 11.3 | 19.3 | 0.05 | 2.77 | 0.51 | 86 | 1007.2 |
| 20260510042622 | 10 | 147 | 11.3 | 16.1 | 0.05 | 2.74 | 0.48 | 86 | 1007.3 |
| 20260510041122 | 10 | 142 | 9.7 | 20.9 | 0.08 | 2.74 | 0.48 | 85 | 1007.4 |
| 20260510040313 | 10 | 121 | 11.3 | 19.3 | 0.10 | 2.72 | 0.46 | 85 | 1007.4 |
| 20260510034122 | 10 | 134 | 12.9 | 20.9 | 0.10 | 2.69 | 0.43 | 85 | 1007.4 |
| 20260510032622 | 10 | 135 | 9.7 | 14.5 | 0.10 | 2.69 | 0.43 | 86 | 1007.4 |
| 20260510031122 | 10 | 127 | 9.7 | 12.9 | 0.10 | 2.67 | 0.41 | 86 | 1007.4 |
| 20260510025622 | 10 | 128 | 9.7 | 12.9 | 0.08 | 2.62 | 0.36 | 86 | 1007.6 |
| 20260510024122 | 10 | 121 | 8.0 | 16.1 | 0.10 | 2.59 | 0.33 | 86 | 1007.6 |
| 20260510022622 | 10 | 132 | 12.9 | 16.1 | 0.10 | 2.59 | 0.33 | 86 | 1007.6 |
| 20260510021122 | 10 | 134 | 12.9 | 17.7 | 0.10 | 2.57 | 0.30 | 86 | 1007.7 |
| 20260510015623 | 10 | 153 | 11.3 | 17.7 | 0.10 | 2.54 | 0.28 | 86 | 1007.8 |
| 20260510014118 | 10 | 136 | 11.3 | 16.1 | 0.08 | 2.49 | 0.23 | 86 | 1007.9 |
| 20260510012617 | 10 | 144 | 14.5 | 20.9 | 0.08 | 2.49 | 0.23 | 86 | 1007.9 |
| 20260510011118 | 10 | 137 | 14.5 | 19.3 | 0.08 | 2.46 | 0.20 | 85 | 1007.9 |
| 20260510005614 | 10 | 130 | 12.9 | 22.5 | 0.08 | 2.46 | 0.18 | 85 | 1008.0 |
| 20260510004114 | 10 | 143 | 16.1 | 22.5 | 0.08 | 2.49 | 0.15 | 84 | 1008.2 |
| 20260510002614 | 10 | 138 | 14.5 | 22.5 | 0.10 | 2.49 | 0.15 | 83 | 1008.2 |
| 20260510001107 | 10 | 132 | 16.1 | 20.9 | 0.10 | 2.46 | 0.13 | 85 | 1008.4 |
| 20260509235608 | 10 | 124 | 14.5 | 19.3 | 0.10 | 2.44 | 0.10 | 87 | 1008.3 |
| 20260509234107 | 10 | 122 | 11.3 | 27.4 | 0.13 | 2.41 | 0.08 | 86 | 1008.6 |
| 20260509232606 | 10 | 136 | 16.1 | 33.8 | 0.10 | 2.39 | 0.05 | 85 | 1008.7 |
| 20260509231059 | 11 | 159 | 12.9 | 30.6 | 0.13 | 2.36 | 0.03 | 85 | 1008.6 |
| 20260509225600 | 11 | 148 | 12.9 | 19.3 | 0.13 | 2.34 | 2.34 | 86 | 1008.5 |
| 20260509224100 | 10 | 140 | 14.5 | 22.5 | 0.13 | 2.31 | 2.31 | 86 | 1008.3 |
| 20260509223304 | 10 | 154 | 16.1 | 25.7 | 0.15 | 2.29 | 2.29 | 86 | 1008.4 |
| 20260509221100 | 10 | 137 | 16.1 | 22.5 | 0.15 | 2.24 | 2.24 | 86 | 1008.2 |
| 20260509215559 | 11 | 128 | 14.5 | 20.9 | 0.15 | 2.21 | 2.21 | 85 | 1008.1 |
| 20260509214100 | 11 | 140 | 16.1 | 24.1 | 0.15 | 2.18 | 2.18 | 84 | 1008.1 |
| 20260509212559 | 11 | 136 | 17.7 | 25.7 | 0.18 | 2.13 | 2.13 | 83 | 1008.0 |
| 20260509211100 | 11 | 123 | 17.7 | 22.5 | 0.18 | 2.11 | 2.11 | 81 | 1007.9 |
| 20260509205600 | 11 | 130 | 16.1 | 25.7 | 0.20 | 2.06 | 2.06 | 81 | 1007.8 |
| 20260509204754 | 11 | 129 | 16.1 | 24.1 | 0.18 | 2.03 | 2.03 | 82 | 1007.7 |
| 20260509203251 | 11 | 146 | 16.1 | 29.0 | 0.15 | 1.96 | 1.98 | 84 | 1007.5 |
| 20260509201055 | 11 | 148 | 12.9 | 24.1 | 0.15 | 1.93 | 1.93 | 82 | 1007.6 |
| 20260509195556 | 11 | 138 | 17.7 | 24.1 | 0.13 | 1.85 | 1.85 | 83 | 1007.3 |
| 20260509194056 | 11 | 127 | 16.1 | 22.5 | 0.13 | 1.83 | 1.83 | 84 | 1007.0 |
| 20260509192555 | 11 | 132 | 9.7 | 30.6 | 0.13 | 1.80 | 1.83 | 86 | 1006.8 |
| 20260509191750 | 11 | 196 | 16.1 | 38.6 | 0.15 | 1.78 | 1.78 | 85 | 1006.8 |
| 20260509185549 | 11 | 140 | 16.1 | 24.1 | 0.15 | 1.75 | 1.75 | 86 | 1006.4 |
| 20260509184047 | 12 | 140 | 16.1 | 25.7 | 0.18 | 1.73 | 1.73 | 86 | 1006.2 |
| 20260509183250 | 12 | 132 | 12.9 | 25.7 | 0.20 | 1.68 | 1.68 | 86 | 1006.1 |
| 20260509181745 | 12 | 126 | 12.9 | 20.9 | 0.23 | 1.65 | 1.65 | 83 | 1006.1 |
| 20260509175547 | 12 | 134 | 9.7 | 17.7 | 0.23 | 1.57 | 1.57 | 83 | 1005.8 |
| 20260509174755 | 12 | 124 | 11.3 | 19.3 | 0.30 | 1.55 | 1.55 | 84 | 1005.7 |
| 20260509172543 | 12 | 144 | 9.7 | 19.3 | 0.36 | 1.47 | 1.47 | 81 | 1005.5 |
| 20260509171043 | 12 | 122 | 11.3 | 17.7 | 0.41 | 1.42 | 1.42 | 81 | 1005.5 |
| 20260509165543 | 12 | 128 | 12.9 | 19.3 | 0.33 | 1.35 | 1.35 | 84 | 1005.2 |
| 20260509164041 | 12 | 140 | 6.4 | 17.7 | 0.23 | 1.24 | 1.24 | 84 | 1005.2 |
| 20260509163239 | 12 | 114 | 4.8 | 16.1 | 0.13 | 1.12 | 1.14 | 85 | 1005.1 |
| 20260509161040 | 13 | 131 | 8.0 | 17.7 | 0.05 | 1.02 | 1.02 | 85 | 1004.7 |
| 20260509155537 | 13 | 78 | 3.2 | 9.7 | 0.05 | 1.02 | 1.02 | 82 | 1004.7 |
| 20260509154036 | 13 | 168 | 3.2 | 8.0 | 0.10 | 0.99 | 0.99 | 84 | 1004.9 |
| 20260509152537 | 12 | 168 | 1.6 | 8.0 | 0.30 | 0.99 | 0.99 | 85 | 1004.8 |
| 20260509151730 | 12 | 147 | 4.8 | 11.3 | 0.71 | 0.99 | 0.99 | 85 | 1004.8 |
| 20260509145537 | 12 | 206 | 0.0 | 3.2 | 0.81 | 0.99 | 0.99 | 86 | 1004.6 |
| 20260509144733 | 12 | 206 | 1.6 | 9.7 | 0.74 | 0.89 | 0.89 | 85 | 1004.5 |
| 20260509142536 | 12 | 226 | 20.9 | 32.2 | 0.53 | 0.71 | 0.71 | 85 | 1004.1 |
| 20260509141036 | 14 | 196 | 17.7 | 29.0 | 0.10 | 0.25 | 0.28 | 82 | 1003.7 |
| 20260509140229 | 16 | 165 | 11.3 | 25.7 | 0.00 | 0.15 | 0.15 | 70 | 1003.5 |
| 20260509134036 | 17 | 135 | 16.1 | 25.7 | 0.00 | 0.15 | 0.15 | 68 | 1003.2 |
| 20260509133235 | 16 | 74 | 12.9 | 24.1 | 0.00 | 0.15 | 0.15 | 71 | 1003.3 |
| 20260509131036 | 16 | 118 | 16.1 | 29.0 | 0.00 | 0.15 | 0.15 | 71 | 1003.5 |
| 20260509130229 | 16 | 118 | 12.9 | 22.5 | 0.00 | 0.15 | 0.15 | 72 | 1003.4 |
| 20260509124037 | 15 | 156 | 8.0 | 19.3 | 0.00 | 0.15 | 0.15 | 77 | 1003.5 |
| 20260509122537 | 15 | 105 | 8.0 | 17.7 | 0.00 | 0.15 | 0.15 | 78 | 1003.8 |
| 20260509121037 | 14 | 92 | 8.0 | 16.1 | 0.03 | 0.15 | 0.15 | 79 | 1003.8 |
| 20260509115536 | 14 | 102 | 4.8 | 11.3 | 0.05 | 0.15 | 0.15 | 82 | 1003.8 |
| 20260509114037 | 13 | 149 | 6.4 | 16.1 | 0.05 | 0.15 | 0.15 | 83 | 1004.0 |
| 20260509113945 | 13 | 148 | 8.0 | 20.9 | 0.08 | 0.20 | 0.15 | 83 | 1004.0 |
| 20260509111734 | 13 | 135 | 9.7 | 20.9 | 0.05 | 0.18 | 0.15 | 82 | 1003.9 |
| 20260509105530 | 13 | 105 | 16.1 | 33.8 | 0.05 | 0.15 | 0.13 | 79 | 1004.0 |
| 20260509104030 | 13 | 76 | 17.7 | 33.8 | 0.03 | 0.15 | 0.10 | 76 | 1003.8 |
| 20260509102530 | 14 | 81 | 16.1 | 27.4 | 0.00 | 0.13 | 0.08 | 76 | 1003.9 |
| 20260509101031 | 14 | 92 | 12.9 | 22.5 | 0.00 | 0.13 | 0.08 | 74 | 1003.9 |
| 20260509095530 | 15 | 131 | 11.3 | 22.5 | 0.00 | 0.13 | 0.08 | 73 | 1003.9 |
| 20260509094029 | 15 | 65 | 8.0 | 19.3 | 0.00 | 0.13 | 0.08 | 71 | 1003.8 |
| 20260509092525 | 15 | 119 | 16.1 | 29.0 | 0.00 | 0.13 | 0.08 | 70 | 1003.8 |
| 20260509091022 | 15 | 113 | 14.5 | 27.4 | 0.00 | 0.13 | 0.08 | 70 | 1003.8 |
| 20260509085522 | 15 | 101 | 17.7 | 30.6 | 0.00 | 0.13 | 0.08 | 70 | 1003.7 |
| 20260509084022 | 15 | 85 | 14.5 | 30.6 | 0.00 | 0.13 | 0.08 | 73 | 1003.6 |
| 20260509082522 | 15 | 84 | 17.7 | 25.7 | 0.00 | 0.13 | 0.08 | 73 | 1003.7 |
| 20260509081024 | 14 | 80 | 17.7 | 29.0 | 0.00 | 0.13 | 0.08 | 72 | 1003.7 |
| 20260509075522 | 15 | 84 | 17.7 | 32.2 | 0.00 | 0.13 | 0.08 | 71 | 1003.8 |
| 20260509074022 | 14 | 46 | 17.7 | 27.4 | 0.00 | 0.13 | 0.08 | 73 | 1003.8 |
| 20260509072522 | 14 | 93 | 14.5 | 22.5 | 0.00 | 0.13 | 0.08 | 72 | 1003.9 |